Index of /manuals/Inspection Programs/CAMP RW/CAMP/Rev 0/Section A/

NameLast ModifiedSize
UpParent Directory
File2.docx2023-06-21 17:47 35k
File412-MM-CH05 - 25 hr - 30 Day.pdf2023-06-21 17:47 259k
File412-MM-CH05 300 hr - 12 Mon.pdf2023-06-21 17:47 173k
File412-MM-CH05 5000 hr - 60 Mon.pdf2023-06-21 17:47 156k
FileA0025 25 hr - 30 Day.docx2023-06-21 17:47 71k
FileA0100 100 hr - 120 Day Battery.docx2023-06-21 17:47 25k
FileA0101 100 hr - 120 Day Heater.docx2023-06-21 17:47 24k
FileA0102 100 hr - 120 Day Tailboom.docx2023-06-21 17:47 26k
FileA0103 100 hr - 120 Day Main Rotor.docx2023-06-21 17:47 27k
FileA0301 300 hr - 12 Mon.docx2023-06-21 17:47 36k
FileA0302 300 hr - 12 Mon.docx2023-06-21 17:47 34k
FileA0303 300 hr - 12 Mon.docx2023-06-21 17:47 29k
FileA0304 300 hr - 12 Mon.docx2023-06-21 17:47 34k
FileA0305 300 hr - 12 Mon.docx2023-06-21 17:47 32k
FileA0306 300 hr - 12 Mon.docx2023-06-21 17:47 40k
FileA0601 600 hr - 12 Mon.docx2023-06-21 17:47 30k
FileA0602 600 hr - 12 Mon.docx2023-06-21 17:47 28k
FileA0604 600 hr - 12 Mon.docx2023-06-21 17:47 28k
FileA0605 600 hr - 12 Mon.docx2023-06-21 17:47 29k
FileA0606 600 hr - 12 Mon.docx2023-06-21 17:47 28k
FileA5005 5000 hr - 60 Mon.docx2023-06-21 17:47 327k
FileAirframe Templete.docx2023-06-21 17:47 31k
FileBHT - 412-MM-CH12 Lubrication Charts.pdf2023-06-21 17:47 565k
FileSection A.pdf2023-06-21 17:47 588k
Proudly Served by LiteSpeed Web Server at mhi.rotor-apps.com Port 443